Time;durP1;ratioP1;P1;durP2;ratioP2;P2;SDS_P1;SDS_P2;PMS_P1;PMS_P2;Temp;Humidity;BMP_temperature;BMP_pressure;BME280_temperature;BME280_humidity;BME280_pressure;Samples;Min_cycle;Max_cycle;Signal;HPM_P1;HPM_P2
2023/09/04 00:00:07;;;;;;;0.40;0.40;;;;;;;15.77;98.22;97880.72;29395;218;63004;-67
2023/09/04 00:00:41;;;;;;;0.40;0.40;;;;;;;15.76;98.58;97871.69;29395;226;63009;-68
2023/09/04 00:01:13;;;;;;;0.40;0.40;;;;;;;15.77;98.61;97888.94;29395;269;63004;-53
2023/09/04 00:01:44;;;;;;;0.40;0.40;;;;;;;15.72;98.60;97884.38;29395;239;63009;-68
2023/09/04 00:02:19;;;;;;;0.40;0.40;;;;;;;15.72;98.14;97882.44;29395;203;63005;-69
2023/09/04 00:02:50;;;;;;;0.40;0.40;;;;;;;15.72;98.55;97889.84;29395;225;63009;-53
2023/09/04 00:03:25;;;;;;;0.40;0.40;;;;;;;15.72;98.43;97881.63;29394;284;64009;-68
2023/09/04 00:03:57;;;;;;;0.40;0.40;;;;;;;15.71;98.76;97878.06;29395;223;63009;-53
2023/09/04 00:04:29;;;;;;;0.40;0.40;;;;;;;15.71;98.66;97885.47;29395;207;63009;-54
2023/09/04 00:05:00;;;;;;;0.40;0.40;;;;;;;15.70;98.88;97878.38;29395;240;63009;-54
2023/09/04 00:05:34;;;;;;;0.40;0.40;;;;;;;15.70;98.68;97883.84;29395;202;63005;-69
2023/09/04 00:06:06;;;;;;;0.40;0.40;;;;;;;15.69;98.78;97876.75;29394;230;64013;-69
2023/09/04 00:06:38;;;;;;;0.40;0.40;;;;;;;15.69;99.09;97877.56;29395;207;63004;-68
2023/09/04 00:07:10;;;;;;;0.40;0.40;;;;;;;15.69;99.06;97876.75;29395;240;63009;-68
2023/09/04 00:07:41;;;;;;;0.40;0.40;;;;;;;15.67;99.00;97868.03;29395;253;63004;-67
2023/09/04 00:08:12;;;;;;;0.40;0.40;;;;;;;15.68;98.79;97880.59;29394;209;64013;-54
2023/09/04 00:08:43;;;;;;;0.40;0.40;;;;;;;15.68;99.07;97875.13;29395;244;63004;-53
2023/09/04 00:09:15;;;;;;;0.40;0.40;;;;;;;15.68;99.31;97872.41;29395;225;63009;-53
2023/09/04 00:09:48;;;;;;;0.40;0.40;;;;;;;15.68;99.02;97872.41;29395;236;63005;-53
2023/09/04 00:10:19;;;;;;;0.40;0.40;;;;;;;15.68;99.40;97866.94;29395;218;63009;-68
2023/09/04 00:10:51;;;;;;;0.40;0.40;;;;;;;15.67;99.46;97871.59;29395;244;63009;-68
2023/09/04 00:11:22;;;;;;;0.40;0.40;;;;;;;15.68;99.47;97869.66;29395;291;63009;-68
2023/09/04 00:11:57;;;;;;;0.40;0.40;;;;;;;15.69;99.52;97876.75;29394;231;64009;-54
2023/09/04 00:12:28;;;;;;;0.40;0.40;;;;;;;15.69;99.65;97872.09;29395;244;63009;-54
2023/09/04 00:13:00;;;;;;;0.40;0.40;;;;;;;15.69;99.37;97874.03;29395;225;63005;-54
2023/09/04 00:13:31;;;;;;;0.40;0.40;;;;;;;15.68;99.65;97869.66;29395;224;63009;-67
2023/09/04 00:14:02;;;;;;;0.40;0.40;;;;;;;15.67;99.55;97874.31;29395;210;63004;-53
2023/09/04 00:14:33;;;;;;;0.40;0.40;;;;;;;15.66;99.52;97871.88;29395;260;63012;-53
2023/09/04 00:15:06;;;;;;;0.40;0.40;;;;;;;15.66;99.29;97874.63;29395;249;63009;-53
2023/09/04 00:15:38;;;;;;;0.40;0.40;;;;;;;15.65;99.42;97875.72;29394;238;64013;-54
2023/09/04 00:16:09;;;;;;;0.30;0.30;;;;;;;15.64;99.41;97871.38;29395;211;63004;-68
2023/09/04 00:16:41;;;;;;;0.40;0.40;;;;;;;15.63;99.89;97877.97;29395;208;63009;-67
2023/09/04 00:17:13;;;;;;;0.40;0.40;;;;;;;15.62;99.81;97879.06;29395;248;63015;-69
2023/09/04 00:17:49;;;;;;;0.40;0.40;;;;;;;15.61;99.75;97864.56;29395;248;63009;-68
2023/09/04 00:18:20;;;;;;;0.40;0.40;;;;;;;15.61;99.54;97870.06;29395;210;63009;-53
2023/09/04 00:18:53;;;;;;;0.40;0.40;;;;;;;15.60;99.57;97870.34;29395;209;63009;-54
2023/09/04 00:19:25;;;;;;;0.40;0.40;;;;;;;15.60;99.47;97867.63;29395;198;63005;-68
2023/09/04 00:19:57;;;;;;;0.40;0.40;;;;;;;15.59;99.58;97866.03;29394;261;64013;-54
2023/09/04 00:20:28;;;;;;;0.40;0.40;;;;;;;15.59;99.41;97863.28;29395;235;63000;-68
2023/09/04 00:20:59;;;;;;;0.40;0.40;;;;;;;15.57;99.71;97874.53;29395;198;63009;-68
2023/09/04 00:21:31;;;;;;;0.40;0.40;;;;;;;15.57;99.29;97869.06;29394;235;64009;-67
2023/09/04 00:22:03;;;;;;;0.40;0.40;;;;;;;15.54;99.59;97866.87;29395;252;63009;-68
2023/09/04 00:22:34;;;;;;;0.40;0.40;;;;;;;15.54;99.47;97860.59;29395;229;63004;-54
2023/09/04 00:23:05;;;;;;;0.40;0.40;;;;;;;15.53;99.49;97861.72;29394;231;64013;-53
2023/09/04 00:23:38;;;;;;;0.40;0.40;;;;;;;15.51;99.52;97863.94;29395;197;63016;-54
2023/09/04 00:24:09;;;;;;;0.40;0.40;;;;;;;15.51;99.69;97861.22;29395;222;63008;-68
2023/09/04 00:24:42;;;;;;;0.40;0.40;;;;;;;15.51;99.67;97858.47;29395;198;63005;-68
2023/09/04 00:25:13;;;;;;;0.40;0.40;;;;;;;15.47;99.78;97855.53;29395;212;63016;-53
2023/09/04 00:25:45;;;;;;;0.40;0.40;;;;;;;15.46;99.97;97858.56;29394;216;64009;-67
2023/09/04 00:26:20;;;;;;;0.40;0.40;;;;;;;15.45;100.00;97860.47;29394;203;64026;-54
2023/09/04 00:26:51;;;;;;;0.40;0.40;;;;;;;15.43;99.78;97858.03;29395;202;63005;-54
2023/09/04 00:27:23;;;;;;;0.40;0.40;;;;;;;15.41;100.00;97857.53;29395;206;63009;-68
2023/09/04 00:27:56;;;;;;;0.40;0.40;;;;;;;15.41;100.00;97853.97;29395;234;63015;-67
2023/09/04 00:28:28;;;;;;;0.40;0.40;;;;;;;15.39;100.00;97846.09;29395;224;63009;-67
2023/09/04 00:28:59;;;;;;;0.50;0.50;;;;;;;15.39;100.00;97857.03;29395;279;63004;-67
2023/09/04 00:29:31;;;;;;;0.40;0.40;;;;;;;15.39;100.00;97859.75;29395;205;63009;-68
2023/09/04 00:30:03;;;;;;;0.47;0.47;;;;;;;15.39;100.00;97851.56;29395;208;63004;-68
2023/09/04 00:30:34;;;;;;;0.40;0.40;;;;;;;15.37;100.00;97853.78;29394;203;64013;-53
2023/09/04 00:31:08;;;;;;;0.40;0.40;;;;;;;15.38;100.00;97849.94;29395;227;63005;-54
2023/09/04 00:31:39;;;;;;;0.47;0.47;;;;;;;15.36;100.00;97854.88;29395;222;63005;-54
2023/09/04 00:32:11;;;;;;;0.40;0.40;;;;;;;15.36;100.00;97857.63;29395;221;63005;-67
2023/09/04 00:32:42;;;;;;;0.40;0.40;;;;;;;15.35;100.00;97856.00;29395;244;63009;-54
2023/09/04 00:33:14;;;;;;;0.40;0.40;;;;;;;15.35;100.00;97856.00;29395;219;63005;-54
2023/09/04 00:33:45;;;;;;;0.43;0.43;;;;;;;15.36;100.00;97857.63;29395;227;63009;-54
2023/09/04 00:34:16;;;;;;;0.40;0.40;;;;;;;15.35;100.00;97855.19;29395;240;63009;-54
2023/09/04 00:34:48;;;;;;;0.40;0.40;;;;;;;15.34;100.00;97854.38;29395;228;63024;-54
2023/09/04 00:35:19;;;;;;;0.40;0.40;;;;;;;15.33;100.00;97852.75;29395;231;63008;-54
2023/09/04 00:35:50;;;;;;;0.40;0.40;;;;;;;15.32;100.00;97856.59;29394;202;64013;-53
2023/09/04 00:36:22;;;;;;;0.40;0.40;;;;;;;15.31;100.00;97854.97;29395;232;63000;-54
2023/09/04 00:36:54;;;;;;;0.40;0.40;;;;;;;15.32;100.00;97848.38;29395;243;63009;-52
2023/09/04 00:37:25;;;;;;;0.50;0.50;;;;;;;15.33;100.00;97846.47;29395;202;63004;-55
2023/09/04 00:37:57;;;;;;;0.40;0.40;;;;;;;15.33;100.00;97847.28;29395;287;63008;-68
2023/09/04 00:38:29;;;;;;;0.40;0.40;;;;;;;15.34;100.00;97853.56;29395;210;63005;-54
2023/09/04 00:39:00;;;;;;;0.40;0.40;;;;;;;15.35;100.00;97850.53;29395;224;63009;-54
2023/09/04 00:39:32;;;;;;;0.40;0.40;;;;;;;15.34;100.00;97843.44;29395;215;63005;-54
2023/09/04 00:40:05;;;;;;;0.40;0.40;;;;;;;15.35;100.00;97847.78;29395;215;63009;-53
2023/09/04 00:40:36;;;;;;;0.50;0.50;;;;;;;15.32;100.00;97848.38;29395;216;63005;-68
2023/09/04 00:41:08;;;;;;;0.50;0.50;;;;;;;15.32;100.00;97853.84;29394;197;64013;-54
2023/09/04 00:41:39;;;;;;;0.40;0.40;;;;;;;15.31;100.00;97852.22;29395;209;63005;-54
2023/09/04 00:42:10;;;;;;;0.40;0.40;;;;;;;15.31;100.00;97849.50;29395;236;63009;-53
2023/09/04 00:42:42;;;;;;;0.50;0.50;;;;;;;15.31;100.00;97846.75;29395;203;63004;-55
2023/09/04 00:43:13;;;;;;;0.50;0.50;;;;;;;15.31;100.00;97848.69;29395;213;63009;-54
2023/09/04 00:43:44;;;;;;;0.40;0.40;;;;;;;15.30;100.00;97847.88;29394;224;64009;-54
2023/09/04 00:44:17;;;;;;;0.40;0.40;;;;;;;15.26;100.00;97841.38;29395;227;63009;-54
2023/09/04 00:44:50;;;;;;;0.40;0.40;;;;;;;15.28;100.00;97850.09;29394;196;64009;-54
2023/09/04 00:45:21;;;;;;;0.40;0.40;;;;;;;15.28;100.00;97844.63;29395;220;63008;-56
2023/09/04 00:45:53;;;;;;;0.40;0.40;;;;;;;15.27;100.00;97853.13;29394;196;64004;-67
2023/09/04 00:46:25;;;;;;;0.40;0.40;;;;;;;15.26;100.00;97844.13;29395;240;63009;-53
2023/09/04 00:46:58;;;;;;;0.40;0.40;;;;;;;15.24;100.00;97843.63;29395;216;63005;-53
2023/09/04 00:47:30;;;;;;;0.40;0.40;;;;;;;15.25;100.00;97850.69;29395;218;63009;-54
2023/09/04 00:48:03;;;;;;;0.40;0.40;;;;;;;15.24;100.00;97845.56;29395;202;63005;-54
2023/09/04 00:48:34;;;;;;;0.40;0.40;;;;;;;15.24;100.00;97837.34;29394;206;64013;-54
2023/09/04 00:49:06;;;;;;;0.50;0.50;;;;;;;15.23;100.00;97844.75;29395;212;63005;-53
2023/09/04 00:49:37;;;;;;;0.40;0.40;;;;;;;15.23;100.00;97841.19;29395;231;63009;-54
2023/09/04 00:50:13;;;;;;;0.40;0.40;;;;;;;15.22;100.00;97845.84;29395;241;63005;-54
2023/09/04 00:50:44;;;;;;;0.40;0.40;;;;;;;15.22;100.00;97843.13;29395;223;63019;-68
2023/09/04 00:51:16;;;;;;;0.40;0.40;;;;;;;15.21;100.00;97855.16;29395;212;63004;-68
2023/09/04 00:51:47;;;;;;;0.40;0.40;;;;;;;15.19;100.00;97846.44;29394;209;64013;-54
2023/09/04 00:52:19;;;;;;;0.40;0.40;;;;;;;15.20;100.00;97842.59;29395;196;63009;-52
2023/09/04 00:52:57;;;;;;;0.40;0.40;;;;;;;15.18;100.00;97844.00;29395;211;63008;-68
2023/09/04 00:53:30;;;;;;;0.40;0.40;;;;;;;15.17;100.00;97835.00;29395;237;63004;-54
2023/09/04 00:54:01;;;;;;;0.40;0.40;;;;;;;15.17;100.00;97837.72;29395;238;63009;-55
2023/09/04 00:54:33;;;;;;;0.40;0.40;;;;;;;15.18;100.00;97831.16;29395;255;63005;-54
2023/09/04 00:55:05;;;;;;;0.40;0.40;;;;;;;15.20;100.00;97836.31;29395;233;63009;-54
2023/09/04 00:55:39;;;;;;;0.40;0.40;;;;;;;15.19;100.00;97832.78;29395;251;63005;-53
2023/09/04 00:56:13;;;;;;;0.40;0.40;;;;;;;15.19;100.00;97830.03;29395;235;63009;-53
2023/09/04 00:56:48;;;;;;;0.40;0.40;;;;;;;15.18;100.00;97833.88;29395;223;63005;-53
2023/09/04 00:57:21;;;;;;;0.40;0.40;;;;;;;15.18;100.00;97833.88;29394;237;64013;-54
2023/09/04 00:57:53;;;;;;;0.40;0.40;;;;;;;15.16;100.00;97830.63;29395;227;63004;-53
2023/09/04 00:58:24;;;;;;;0.40;0.40;;;;;;;15.16;100.00;97829.81;29395;212;63009;-54
2023/09/04 00:58:56;;;;;;;0.40;0.40;;;;;;;15.15;100.00;97833.69;29394;230;64009;-53
2023/09/04 00:59:27;;;;;;;0.40;0.40;;;;;;;15.13;100.00;97831.25;29395;222;63009;-53
2023/09/04 01:00:12;;;;;;;0.40;0.40;;;;;;;15.12;100.00;97828.81;29395;220;63004;-54
2023/09/04 01:00:45;;;;;;;0.40;0.40;;;;;;;15.10;100.00;97842.75;29395;225;63008;-53
2023/09/04 01:01:18;;;;;;;0.47;0.47;;;;;;;15.09;100.00;97836.50;29395;202;63005;-54
2023/09/04 01:01:49;;;;;;;0.40;0.40;;;;;;;15.09;100.00;97835.69;29394;210;64014;-54
2023/09/04 01:02:20;;;;;;;0.50;0.50;;;;;;;15.09;100.00;97841.12;29395;203;63005;-54
2023/09/04 01:02:52;;;;;;;0.40;0.40;;;;;;;15.09;100.00;97838.41;29395;227;63009;-54
2023/09/04 01:03:24;;;;;;;0.40;0.40;;;;;;;15.10;100.00;97837.28;29395;208;63005;-54
2023/09/04 01:03:55;;;;;;;0.40;0.40;;;;;;;15.09;100.00;97835.69;29394;223;64013;-53
2023/09/04 01:04:27;;;;;;;0.50;0.50;;;;;;;15.09;100.00;97838.41;29395;196;63005;-54
2023/09/04 01:04:58;;;;;;;0.40;0.40;;;;;;;15.08;100.00;97834.88;29395;235;63011;-54
2023/09/04 01:05:32;;;;;;;0.40;0.40;;;;;;;15.07;100.00;97832.44;29395;196;63004;-54
2023/09/04 01:06:03;;;;;;;0.40;0.40;;;;;;;15.07;100.00;97838.72;29395;208;63009;-54
2023/09/04 01:06:34;;;;;;;0.40;0.40;;;;;;;15.08;100.00;97836.78;29395;220;63009;-68
2023/09/04 01:07:05;;;;;;;0.40;0.40;;;;;;;15.07;100.00;97840.62;29395;214;63007;-54
2023/09/04 01:07:40;;;;;;;0.40;0.40;;;;;;;15.07;100.00;97835.97;29395;231;63004;-54
2023/09/04 01:08:13;;;;;;;0.50;0.50;;;;;;;15.08;100.00;97834.06;29395;226;63008;-53
2023/09/04 01:08:45;;;;;;;0.40;0.40;;;;;;;15.08;100.00;97834.88;29394;261;64009;-53
2023/09/04 01:09:17;;;;;;;0.40;0.40;;;;;;;15.10;100.00;97842.75;29395;236;63018;-54
2023/09/04 01:09:48;;;;;;;0.40;0.40;;;;;;;15.09;100.00;97841.12;29395;229;63005;-54
2023/09/04 01:10:20;;;;;;;0.30;0.30;;;;;;;15.09;100.00;97841.12;29395;202;63009;-54
2023/09/04 01:11:24;;;;;;;0.40;0.40;;;;;;;15.08;100.00;97839.53;29395;214;63005;-54
2023/09/04 01:12:21;;;;;;;0.40;0.40;;;;;;;15.06;100.00;97842.53;29395;238;63014;-67
2023/09/04 01:13:14;;;;;;;0.50;0.50;;;;;;;15.06;100.00;97837.09;29395;224;63004;-54
2023/09/04 01:13:51;;;;;;;0.40;0.40;;;;;;;15.06;100.00;97842.53;29394;260;64013;-54
2023/09/04 01:14:25;;;;;;;0.40;0.40;;;;;;;15.06;100.00;97844.47;29394;224;64009;-54
2023/09/04 01:14:58;;;;;;;0.40;0.40;;;;;;;15.05;100.00;97851.84;29395;229;63009;-53
2023/09/04 01:15:31;;;;;;;0.40;0.40;;;;;;;15.05;100.00;97840.12;29395;272;63004;-56
2023/09/04 01:16:05;;;;;;;0.40;0.40;;;;;;;15.05;100.00;97846.38;29395;254;63004;-54
2023/09/04 01:16:38;;;;;;;0.40;0.40;;;;;;;15.04;100.00;97842.03;29395;219;63005;-54
2023/09/04 01:17:10;;;;;;;0.50;0.50;;;;;;;15.04;100.00;97843.94;29395;241;63005;-53
2023/09/04 01:17:44;;;;;;;0.40;0.40;;;;;;;15.02;100.00;97846.16;29395;209;63005;-54
2023/09/04 01:18:15;;;;;;;0.40;0.40;;;;;;;15.01;100.00;97839.09;29395;264;63020;-54
2023/09/04 01:18:48;;;;;;;0.40;0.40;;;;;;;15.01;100.00;97844.53;29395;198;63005;-54
2023/09/04 01:19:19;;;;;;;0.40;0.40;;;;;;;15.01;100.00;97841.81;29395;237;63014;-54
2023/09/04 01:19:50;;;;;;;0.40;0.40;;;;;;;15.01;100.00;97841.81;29394;239;64009;-53
2023/09/04 01:20:27;;;;;;;0.40;0.40;;;;;;;15.01;100.00;97839.09;29395;207;63009;-54
2023/09/04 01:21:03;;;;;;;0.40;0.40;;;;;;;15.00;100.00;97838.28;29395;213;63004;-54
2023/09/04 01:21:37;;;;;;;0.40;0.40;;;;;;;15.01;100.00;97836.34;29395;210;63026;-53
2023/09/04 01:22:09;;;;;;;0.40;0.40;;;;;;;15.01;100.00;97844.53;29395;218;63004;-53
2023/09/04 01:22:40;;;;;;;0.40;0.40;;;;;;;15.01;100.00;97839.09;29395;236;63009;-54
2023/09/04 01:23:11;;;;;;;0.40;0.40;;;;;;;15.00;100.00;97832.00;29395;243;63000;-54
2023/09/04 01:23:43;;;;;;;0.40;0.40;;;;;;;15.01;100.00;97831.69;29395;198;63008;-54
2023/09/04 01:24:14;;;;;;;0.40;0.40;;;;;;;15.01;100.00;97836.34;29395;244;63011;-67
2023/09/04 01:24:46;;;;;;;0.40;0.40;;;;;;;15.00;100.00;97832.81;29395;199;63009;-53
2023/09/04 01:25:17;;;;;;;0.40;0.40;;;;;;;15.00;100.00;97838.28;29394;219;64009;-54
2023/09/04 01:25:57;;;;;;;0.40;0.40;;;;;;;15.02;100.00;97837.97;29395;220;63009;-53
2023/09/04 01:26:46;;;;;;;0.40;0.40;;;;;;;15.01;100.00;97839.09;29417;233;63005;-53
2023/09/04 01:27:31;;;;;;;0.40;0.40;;;;;;;15.01;100.00;97833.62;29394;215;64013;-54
2023/09/04 01:28:18;;;;;;;0.40;0.40;;;;;;;15.02;100.00;97836.06;29395;207;63004;-67
2023/09/04 01:29:16;;;;;;;0.40;0.40;;;;;;;15.03;100.00;97836.87;29395;246;63009;-54
2023/09/04 01:30:07;;;;;;;0.50;0.50;;;;;;;15.03;100.00;97834.94;29395;206;63004;-54
2023/09/04 01:30:55;;;;;;;0.50;0.50;;;;;;;15.04;100.00;97836.56;29377;236;125017;-54
2023/09/04 01:31:33;;;;;;;0.45;0.45;;;;;;;15.05;100.00;97840.12;29373;218;63001;-54
2023/09/04 01:32:13;;;;;;;0.40;0.40;;;;;;;15.05;100.00;97834.66;29395;215;63005;-53
2023/09/04 01:32:51;;;;;;;0.50;0.50;;;;;;;15.06;100.00;97833.53;29438;202;64009;-54
2023/09/04 01:33:30;;;;;;;0.43;0.43;;;;;;;15.05;100.00;97835.47;29395;208;63009;-54
2023/09/04 01:34:09;;;;;;;0.40;0.40;;;;;;;15.06;100.00;97836.28;29395;214;63005;-55
2023/09/04 01:34:43;;;;;;;0.40;0.40;;;;;;;15.06;100.00;97831.63;29395;235;63009;-53
2023/09/04 01:35:17;;;;;;;0.40;0.40;;;;;;;15.06;100.00;97831.63;29395;202;63004;-67
2023/09/04 01:35:50;;;;;;;0.40;0.40;;;;;;;15.07;100.00;97837.91;29395;225;63009;-54
2023/09/04 01:36:25;;;;;;;0.40;0.40;;;;;;;15.07;100.00;97832.44;29395;220;63004;-54
2023/09/04 01:36:58;;;;;;;0.40;0.40;;;;;;;15.07;100.00;97835.16;29395;241;63009;-53
2023/09/04 01:37:31;;;;;;;0.40;0.40;;;;;;;15.07;100.00;97829.69;29395;223;63004;-54
2023/09/04 01:38:04;;;;;;;0.40;0.40;;;;;;;15.06;100.00;97837.09;29394;227;64014;-53
2023/09/04 01:38:36;;;;;;;0.40;0.40;;;;;;;15.06;100.00;97836.28;29395;207;63005;-54
2023/09/04 01:39:09;;;;;;;0.40;0.40;;;;;;;15.06;100.00;97833.53;29395;231;63017;-53
2023/09/04 01:39:45;;;;;;;0.40;0.40;;;;;;;15.04;100.00;97827.56;29395;264;63018;-55
2023/09/04 01:40:16;;;;;;;0.40;0.40;;;;;;;15.03;100.00;97832.22;29395;237;63009;-53
2023/09/04 01:40:51;;;;;;;0.40;0.40;;;;;;;15.04;100.00;97827.56;29395;243;63005;-54
2023/09/04 01:41:23;;;;;;;0.40;0.40;;;;;;;15.04;100.00;97835.75;29395;210;63009;-55
2023/09/04 01:41:56;;;;;;;0.43;0.43;;;;;;;15.03;100.00;97831.41;29395;231;63005;-54
2023/09/04 01:42:27;;;;;;;0.40;0.40;;;;;;;15.03;100.00;97831.41;29395;209;63009;-54
2023/09/04 01:42:58;;;;;;;0.40;0.40;;;;;;;15.03;100.00;97834.13;29395;210;63004;-53
2023/09/04 01:43:32;;;;;;;0.40;0.40;;;;;;;15.03;100.00;97828.66;29394;293;64013;-67
2023/09/04 01:44:03;;;;;;;0.40;0.40;;;;;;;15.03;100.00;97825.94;29395;220;63004;-54
2023/09/04 01:44:35;;;;;;;0.40;0.40;;;;;;;15.01;100.00;97833.62;29395;226;63009;-67
2023/09/04 01:45:08;;;;;;;0.40;0.40;;;;;;;15.01;100.00;97836.34;29395;209;63004;-67
2023/09/04 01:45:39;;;;;;;0.45;0.45;;;;;;;15.01;100.00;97828.16;29395;250;63019;-54
2023/09/04 01:46:11;;;;;;;0.40;0.40;;;;;;;15.00;100.00;97832.00;29395;246;63009;-54
2023/09/04 01:46:42;;;;;;;0.40;0.40;;;;;;;14.99;100.00;97838.56;29395;202;63009;-54
2023/09/04 01:47:13;;;;;;;0.40;0.40;;;;;;;14.97;100.00;97825.19;29395;202;63005;-53
2023/09/04 01:47:46;;;;;;;0.40;0.40;;;;;;;14.97;100.00;97832.59;29395;243;63009;-54
2023/09/04 01:48:17;;;;;;;0.40;0.40;;;;;;;14.96;100.00;97830.97;29395;235;63005;-54
2023/09/04 01:48:49;;;;;;;0.40;0.40;;;;;;;14.95;100.00;97829.34;29394;266;64013;-54
2023/09/04 01:49:20;;;;;;;0.40;0.40;;;;;;;14.94;100.00;97828.53;29395;196;63005;-54
2023/09/04 01:49:52;;;;;;;0.40;0.40;;;;;;;14.93;100.00;97826.09;29395;225;63009;-67
2023/09/04 01:50:23;;;;;;;0.40;0.40;;;;;;;14.91;100.00;97820.91;29395;199;63004;-53
2023/09/04 01:50:54;;;;;;;0.40;0.40;;;;;;;14.90;100.00;97830.22;29395;231;63009;-54
2023/09/04 01:51:26;;;;;;;0.50;0.50;;;;;;;14.90;100.00;97829.44;29395;221;63012;-53
2023/09/04 01:52:00;;;;;;;0.50;0.50;;;;;;;14.91;100.00;97831.03;29395;214;63009;-54
2023/09/04 01:52:31;;;;;;;0.40;0.40;;;;;;;14.89;100.00;97825.91;29395;241;63004;-54
2023/09/04 01:53:03;;;;;;;0.40;0.40;;;;;;;14.89;100.00;97825.09;29395;196;63008;-53
2023/09/04 01:53:34;;;;;;;0.40;0.40;;;;;;;14.89;100.00;97827.81;29395;211;63005;-53
2023/09/04 01:54:05;;;;;;;0.40;0.40;;;;;;;14.87;100.00;97830.03;29394;203;64014;-53
2023/09/04 01:54:37;;;;;;;0.40;0.40;;;;;;;14.85;100.00;97829.53;29395;221;63005;-54
2023/09/04 01:55:08;;;;;;;0.40;0.40;;;;;;;14.84;100.00;97830.63;29395;197;63009;-53
2023/09/04 01:55:39;;;;;;;0.40;0.40;;;;;;;14.83;100.00;97832.56;29395;239;63005;-54
2023/09/04 01:56:10;;;;;;;0.40;0.40;;;;;;;14.84;100.00;97838.81;29395;244;63009;-53
2023/09/04 01:56:42;;;;;;;0.40;0.40;;;;;;;14.82;100.00;97836.37;29395;234;63005;-53
2023/09/04 01:57:16;;;;;;;0.40;0.40;;;;;;;14.82;100.00;97830.13;29395;233;63009;-53
2023/09/04 01:57:47;;;;;;;0.40;0.40;;;;;;;14.80;100.00;97837.78;29395;238;63004;-53
2023/09/04 01:58:19;;;;;;;0.40;0.40;;;;;;;14.76;100.00;97832.09;29395;219;63009;-54
2023/09/04 01:58:50;;;;;;;0.40;0.40;;;;;;;14.73;100.00;97827.22;29395;224;63013;-68
2023/09/04 01:59:22;;;;;;;0.40;0.40;;;;;;;14.70;100.00;97834.09;29394;240;64013;-53
2023/09/04 01:59:53;;;;;;;0.40;0.40;;;;;;;14.69;100.00;97832.47;29395;196;63004;-54
2023/09/04 02:00:24;;;;;;;0.40;0.40;;;;;;;14.66;100.00;97827.59;29395;217;63008;-55
2023/09/04 02:00:55;;;;;;;0.40;0.40;;;;;;;14.65;100.00;97836.91;29394;228;64005;-54
2023/09/04 02:01:27;;;;;;;0.40;0.40;;;;;;;14.62;100.00;97832.03;29395;265;63009;-55
2023/09/04 02:01:59;;;;;;;0.45;0.45;;;;;;;14.63;100.00;97833.66;29395;202;63005;-54
2023/09/04 02:02:30;;;;;;;0.40;0.40;;;;;;;14.63;100.00;97846.50;29395;249;63012;-54
2023/09/04 02:03:02;;;;;;;0.40;0.40;;;;;;;14.63;100.00;97832.84;29395;244;63005;-52
2023/09/04 02:03:33;;;;;;;0.40;0.40;;;;;;;14.64;100.00;97835.28;29395;302;63009;-68
2023/09/04 02:04:05;;;;;;;0.40;0.40;;;;;;;14.66;100.00;97838.53;29395;218;63005;-53
2023/09/04 02:04:38;;;;;;;0.40;0.40;;;;;;;14.66;100.00;97841.25;29394;211;64013;-54
2023/09/04 02:05:09;;;;;;;0.40;0.40;;;;;;;14.68;100.00;97835.50;29395;197;63004;-53
2023/09/04 02:05:42;;;;;;;0.40;0.40;;;;;;;14.69;100.00;97837.94;29395;226;63009;-53
2023/09/04 02:06:15;;;;;;;0.40;0.40;;;;;;;14.69;100.00;97835.22;29395;199;63004;-54
2023/09/04 02:06:46;;;;;;;0.40;0.40;;;;;;;14.70;100.00;97839.56;29395;233;63009;-67
2023/09/04 02:07:17;;;;;;;0.40;0.40;;;;;;;14.70;100.00;97838.75;29395;225;63004;-53
2023/09/04 02:07:48;;;;;;;2.28;2.25;;;;;;;14.70;100.00;97834.09;29395;244;63008;-54
2023/09/04 02:08:20;;;;;;;0.40;0.40;;;;;;;14.71;100.00;97833.00;29395;226;63005;-53
2023/09/04 02:08:51;;;;;;;0.40;0.40;;;;;;;14.70;100.00;97836.84;29395;237;63009;-54
2023/09/04 02:09:22;;;;;;;0.40;0.40;;;;;;;14.71;100.00;97837.66;29395;205;63005;-54
2023/09/04 02:09:54;;;;;;;0.40;0.40;;;;;;;14.71;100.00;97829.44;29394;224;64014;-54
2023/09/04 02:10:26;;;;;;;0.40;0.40;;;;;;;14.70;100.00;97834.09;29395;266;63005;-53
2023/09/04 02:10:59;;;;;;;0.40;0.40;;;;;;;14.71;100.00;97834.91;29395;217;63009;-53
2023/09/04 02:11:30;;;;;;;0.40;0.40;;;;;;;14.71;100.00;97834.91;29395;199;63005;-54
2023/09/04 02:12:01;;;;;;;0.40;0.40;;;;;;;14.72;100.00;97836.53;29395;204;63009;-53
2023/09/04 02:12:33;;;;;;;0.40;0.40;;;;;;;14.72;100.00;97837.34;29395;198;63004;-53
2023/09/04 02:13:04;;;;;;;0.50;0.50;;;;;;;14.72;100.00;97840.09;29395;231;63009;-54
2023/09/04 02:13:35;;;;;;;0.40;0.40;;;;;;;14.73;100.00;97833.50;29395;218;63004;-53
2023/09/04 02:14:06;;;;;;;0.40;0.40;;;;;;;14.73;100.00;97843.63;29394;218;64009;-53
2023/09/04 02:14:37;;;;;;;0.40;0.40;;;;;;;14.71;100.00;97835.72;29395;223;63004;-53
2023/09/04 02:15:09;;;;;;;0.40;0.40;;;;;;;14.72;100.00;97842.00;29394;204;64013;-53
2023/09/04 02:15:41;;;;;;;0.40;0.40;;;;;;;14.71;100.00;97841.19;29395;233;63004;-53
2023/09/04 02:16:12;;;;;;;0.40;0.40;;;;;;;14.72;100.00;97837.34;29395;211;63009;-56
2023/09/04 02:16:43;;;;;;;0.40;0.40;;;;;;;14.74;100.00;97837.06;29395;254;63005;-53
2023/09/04 02:17:15;;;;;;;0.40;0.40;;;;;;;14.73;100.00;97838.97;29395;216;63009;-53
2023/09/04 02:17:46;;;;;;;0.40;0.40;;;;;;;14.74;100.00;97834.31;29395;216;63013;-54
2023/09/04 02:18:17;;;;;;;0.40;0.40;;;;;;;14.72;100.00;97837.34;29395;222;63008;-54
2023/09/04 02:18:50;;;;;;;0.40;0.40;;;;;;;14.73;100.00;97838.97;29395;199;63005;-52
2023/09/04 02:19:22;;;;;;;0.40;0.40;;;;;;;14.72;100.00;97826.44;29395;235;63009;-53
2023/09/04 02:19:53;;;;;;;0.40;0.40;;;;;;;14.72;100.00;97831.88;29395;307;63004;-54
2023/09/04 02:20:24;;;;;;;0.40;0.40;;;;;;;14.74;100.00;97837.06;29394;216;64013;-54
2023/09/04 02:20:55;;;;;;;0.40;0.40;;;;;;;14.72;100.00;97831.88;29395;215;63004;-54
2023/09/04 02:21:27;;;;;;;0.40;0.40;;;;;;;14.71;100.00;97835.72;29395;210;63009;-54
2023/09/04 02:21:58;;;;;;;0.40;0.40;;;;;;;14.73;100.00;97838.97;29395;204;63004;-53
2023/09/04 02:22:30;;;;;;;0.40;0.40;;;;;;;14.73;100.00;97833.50;29395;244;63008;-54
2023/09/04 02:23:01;;;;;;;0.40;0.40;;;;;;;14.73;100.00;97832.69;29395;198;63004;-67
2023/09/04 02:23:34;;;;;;;0.40;0.40;;;;;;;14.72;100.00;97834.63;29395;225;63013;-53
2023/09/04 02:24:06;;;;;;;0.40;0.40;;;;;;;14.72;100.00;97837.34;29395;225;63005;-53
2023/09/04 02:24:38;;;;;;;0.40;0.40;;;;;;;14.70;100.00;97828.63;29395;220;63009;-54
2023/09/04 02:25:09;;;;;;;0.40;0.40;;;;;;;14.70;100.00;97834.09;29395;202;63005;-54
2023/09/04 02:25:40;;;;;;;0.40;0.40;;;;;;;14.69;100.00;97828.94;29394;209;64013;-53
2023/09/04 02:26:11;;;;;;;0.40;0.40;;;;;;;14.68;100.00;97825.38;29395;241;63005;-53
2023/09/04 02:26:43;;;;;;;0.40;0.40;;;;;;;14.68;100.00;97825.38;29395;236;63009;-53
2023/09/04 02:27:14;;;;;;;0.40;0.40;;;;;;;14.69;100.00;97831.66;29395;211;63004;-54
2023/09/04 02:27:45;;;;;;;0.40;0.40;;;;;;;14.68;100.00;97830.84;29395;238;63009;-54
2023/09/04 02:28:16;;;;;;;0.40;0.40;;;;;;;14.68;100.00;97825.38;29396;199;63004;-54
2023/09/04 02:28:48;;;;;;;0.50;0.50;;;;;;;14.67;100.00;97829.22;29396;215;63024;-53
2023/09/04 02:29:19;;;;;;;0.40;0.40;;;;;;;14.67;100.00;97826.50;29396;210;63004;-54
2023/09/04 02:29:51;;;;;;;0.40;0.40;;;;;;;14.66;100.00;97819.41;29396;211;63008;-54
2023/09/04 02:30:22;;;;;;;0.40;0.40;;;;;;;14.65;100.00;97828.72;29396;262;63005;-53
2023/09/04 02:30:53;;;;;;;0.40;0.40;;;;;;;14.65;100.00;97828.72;29395;218;64014;-53
2023/09/04 02:31:24;;;;;;;0.40;0.40;;;;;;;14.66;100.00;97827.59;29396;222;63005;-54
2023/09/04 02:31:56;;;;;;;0.40;0.40;;;;;;;14.65;100.00;97828.72;29396;256;63009;-54
2023/09/04 02:32:28;;;;;;;0.40;0.40;;;;;;;14.65;100.00;97831.44;29396;222;63005;-54
2023/09/04 02:33:00;;;;;;;0.40;0.40;;;;;;;14.65;100.00;97831.44;29396;229;63009;-54
2023/09/04 02:33:32;;;;;;;0.40;0.40;;;;;;;14.66;100.00;97826.78;29396;218;63005;-54
2023/09/04 02:34:03;;;;;;;0.40;0.40;;;;;;;14.66;100.00;97832.25;29395;199;63009;-55
2023/09/04 02:34:34;;;;;;;0.40;0.40;;;;;;;14.65;100.00;97825.97;29396;222;63004;-53